Terminal Aerodrome Forecast
Issued by NWS

Home | Current Version | Previous Version | Text Only | Print | Product List | Glossary On
Versions: 1 2 3 4 5 6 7 8 9 10 11 12 13
000
FTUS43 KTOP 061128
TAFFOE
TAF
KFOE 061128Z 0612/0712 16012KT P6SM BKN250
     FM061500 19014G22KT P6SM SCT040 BKN120
     FM062100 20010KT P6SM VCTS BKN040CB
      TEMPO 0622/0624 4SM TSRA OVC030CB
     FM070100 34013KT 5SM -TSRA OVC028CB
     FM070300 01010KT 5SM -SHRA BR VCTS OVC015CB=

USA.gov is the U.S. government's official web portal to all federal, state and local government web resources and services.